createdAt,value
2023-04-03T00:01:09.550Z,1.50
2023-04-03T00:03:37.716Z,1.00
2023-04-03T00:06:06.795Z,1.20
2023-04-03T00:08:34.085Z,1.50
2023-04-03T00:11:01.331Z,1.23
2023-04-03T00:13:28.542Z,1.50
2023-04-03T00:15:55.987Z,1.53
2023-04-03T00:18:23.248Z,1.10
2023-04-03T00:20:50.656Z,1.47
2023-04-03T00:23:18.325Z,1.20
2023-04-03T00:25:45.657Z,1.27
2023-04-03T00:28:12.767Z,1.40
2023-04-03T00:30:40.147Z,1.80
2023-04-03T00:33:08.003Z,1.60
2023-04-03T00:35:35.706Z,1.20
2023-04-03T00:38:02.941Z,1.20
2023-04-03T00:40:35.222Z,1.90
2023-04-03T00:43:02.438Z,1.30
2023-04-03T00:45:35.661Z,1.67
2023-04-03T00:48:06.830Z,1.47
2023-04-03T00:50:37.705Z,1.60
2023-04-03T00:53:08.063Z,1.83
2023-04-03T00:55:36.092Z,1.65
2023-04-03T00:58:03.549Z,1.63
2023-04-03T01:00:30.740Z,1.27
2023-04-03T01:02:58.261Z,1.20
2023-04-03T01:05:26.315Z,1.37
2023-04-03T01:07:53.618Z,1.90
2023-04-03T01:10:21.867Z,1.23
2023-04-03T01:12:51.014Z,1.67
2023-04-03T01:15:24.207Z,1.40
2023-04-03T01:17:57.581Z,1.60
2023-04-03T01:20:30.890Z,1.50
2023-04-03T01:23:13.437Z,1.43
2023-04-03T01:25:44.718Z,1.37
2023-04-03T01:30:49.794Z,1.67
2023-04-03T01:33:17.533Z,1.53
2023-04-03T01:35:45.634Z,1.87
2023-04-03T01:38:13.391Z,1.53
2023-04-03T01:40:41.203Z,1.30
2023-04-03T01:43:08.499Z,1.50
2023-04-03T01:45:35.968Z,1.50
2023-04-03T01:48:03.466Z,1.63
2023-04-03T01:50:30.765Z,1.50
2023-04-03T01:52:58.341Z,1.23
2023-04-03T01:55:25.493Z,1.03
2023-04-03T01:57:52.840Z,1.87
2023-04-03T02:00:21.068Z,1.60
2023-04-03T02:02:48.990Z,1.40
2023-04-03T02:05:16.289Z,1.57
2023-04-03T02:07:43.699Z,1.53
2023-04-03T02:10:11.747Z,1.80
2023-04-03T02:12:39.134Z,1.73
2023-04-03T02:15:07.094Z,1.53
2023-04-03T02:17:34.303Z,1.70
2023-04-03T02:20:01.487Z,1.17
2023-04-03T02:22:28.807Z,1.20
2023-04-03T02:24:55.978Z,1.27
2023-04-03T02:27:23.300Z,1.60
2023-04-03T02:29:50.756Z,1.50
2023-04-03T02:32:18.146Z,1.20
2023-04-03T02:34:45.768Z,1.33
2023-04-03T02:37:14.663Z,1.60
2023-04-03T02:39:43.760Z,1.30
2023-04-03T02:42:11.490Z,1.50
2023-04-03T02:44:40.208Z,1.50
2023-04-03T02:47:10.384Z,1.50
2023-04-03T02:49:37.938Z,1.02
2023-04-03T02:52:05.290Z,1.30
2023-04-03T02:54:32.554Z,1.67
2023-04-03T02:57:03.777Z,1.50
2023-04-03T02:59:31.606Z,1.50
2023-04-03T03:01:58.758Z,1.10
2023-04-03T03:04:25.993Z,1.20
2023-04-03T03:06:53.633Z,1.70
2023-04-03T03:09:20.835Z,1.50
2023-04-03T03:11:48.139Z,1.27
2023-04-03T03:14:15.552Z,1.07
2023-04-03T03:16:42.677Z,1.70
2023-04-03T03:19:09.914Z,2.70
2023-04-03T03:21:37.805Z,1.93
2023-04-03T03:24:05.328Z,1.97
2023-04-03T03:26:34.000Z,1.57
2023-04-03T03:29:03.440Z,1.67
2023-04-03T03:31:31.318Z,1.50
2023-04-03T03:33:58.585Z,2.30
2023-04-03T03:36:25.959Z,1.70
2023-04-03T03:38:53.214Z,1.80
2023-04-03T03:41:20.589Z,1.23
2023-04-03T03:43:48.397Z,1.20
2023-04-03T03:46:17.442Z,1.47
2023-04-03T03:48:44.945Z,1.17
2023-04-03T03:51:12.297Z,1.53
2023-04-03T03:53:40.059Z,1.60
2023-04-03T03:56:10.848Z,1.42
2023-04-03T03:58:40.285Z,1.40
2023-04-03T04:01:08.175Z,1.50
2023-04-03T04:03:41.512Z,1.30
2023-04-03T04:06:11.034Z,1.10
2023-04-03T04:08:41.626Z,1.90
2023-04-03T04:11:11.518Z,1.43
2023-04-03T04:13:39.652Z,1.20
2023-04-03T04:16:08.653Z,1.20
2023-04-03T04:18:35.954Z,1.77
2023-04-03T04:21:03.762Z,1.80
2023-04-03T04:23:31.678Z,3.60
2023-04-03T04:26:00.614Z,6.17
2023-04-03T04:28:30.827Z,10.90
2023-04-03T04:31:00.969Z,14.80
2023-04-03T04:33:29.270Z,14.57
2023-04-03T04:35:58.912Z,9.88
2023-04-03T04:38:26.339Z,10.40
2023-04-03T04:40:54.768Z,7.47
2023-04-03T04:43:23.149Z,8.97
2023-04-03T04:46:19.683Z,7.18
2023-04-03T04:48:51.961Z,7.30
2023-04-03T04:51:21.415Z,8.03
2023-04-03T04:53:48.569Z,7.93
2023-04-03T04:56:18.491Z,7.53
2023-04-03T04:58:46.706Z,7.57
2023-04-03T05:01:13.948Z,6.23
2023-04-03T05:03:55.208Z,4.53
2023-04-03T05:06:23.982Z,4.53
2023-04-03T05:08:51.163Z,6.33
2023-04-03T05:11:19.385Z,4.90
2023-04-03T05:13:50.998Z,3.97
2023-04-03T05:16:18.532Z,2.40
2023-04-03T05:18:46.307Z,2.97
2023-04-03T05:21:19.708Z,2.03
2023-04-03T05:23:49.190Z,1.88
2023-04-03T05:26:16.584Z,2.30
2023-04-03T05:28:45.018Z,1.70
2023-04-03T05:31:14.204Z,2.60
2023-04-03T05:33:42.263Z,1.93
2023-04-03T05:36:14.383Z,2.07
2023-04-03T05:38:46.013Z,1.73
2023-04-03T05:41:13.924Z,1.67
2023-04-03T05:43:42.143Z,1.43
2023-04-03T05:46:15.965Z,1.50
2023-04-03T05:48:45.130Z,2.70
2023-04-03T05:51:29.644Z,1.63
2023-04-03T05:54:09.490Z,2.30
2023-04-03T05:56:36.991Z,2.00
2023-04-03T05:59:04.358Z,2.10
2023-04-03T06:01:32.031Z,1.77
2023-04-03T06:04:00.233Z,2.00
2023-04-03T06:06:28.254Z,2.03
2023-04-03T06:08:56.547Z,2.83
2023-04-03T06:11:23.852Z,2.10
2023-04-03T06:13:51.242Z,2.13
2023-04-03T06:16:18.798Z,2.20
2023-04-03T06:18:46.058Z,1.87
2023-04-03T06:21:13.787Z,1.77
2023-04-03T06:23:41.818Z,2.00
2023-04-03T06:26:09.342Z,2.03
2023-04-03T06:28:36.606Z,2.00
2023-04-03T06:31:03.704Z,1.70
2023-04-03T06:33:31.043Z,2.00
2023-04-03T06:35:59.171Z,2.03
2023-04-03T06:38:26.586Z,2.20
2023-04-03T06:40:53.749Z,2.60
2023-04-03T06:43:23.458Z,2.30
2023-04-03T06:48:19.136Z,1.50
2023-04-03T06:50:46.631Z,2.47
2023-04-03T06:53:14.707Z,2.00
2023-04-03T06:55:42.437Z,2.13
2023-04-03T06:58:10.360Z,2.07
2023-04-03T07:00:40.552Z,2.50
2023-04-03T07:03:10.804Z,1.90
2023-04-03T07:05:38.769Z,2.38
2023-04-03T07:08:06.786Z,2.20
2023-04-03T07:10:34.072Z,2.00
2023-04-03T07:13:02.731Z,3.60
2023-04-03T07:15:30.881Z,2.20
2023-04-03T07:17:58.241Z,2.20
2023-04-03T07:20:25.692Z,2.07
2023-04-03T07:22:52.859Z,2.07
2023-04-03T07:25:20.406Z,3.57
2023-04-03T07:27:48.676Z,2.30
2023-04-03T07:30:16.074Z,2.10
2023-04-03T07:32:43.582Z,2.70
2023-04-03T07:35:11.099Z,2.80
2023-04-03T07:37:38.685Z,2.00
2023-04-03T07:40:07.902Z,2.47
2023-04-03T07:42:35.012Z,2.43
2023-04-03T07:45:02.750Z,2.20
2023-04-03T07:47:30.303Z,2.33
2023-04-03T07:49:58.327Z,2.20
2023-04-03T07:52:29.308Z,2.60
2023-04-03T07:54:56.885Z,2.17
2023-04-03T07:57:24.330Z,2.63
2023-04-03T07:59:55.447Z,2.20
2023-04-03T08:02:22.992Z,2.47
2023-04-03T08:04:50.802Z,2.50
2023-04-03T08:07:21.042Z,3.03
2023-04-03T08:09:48.653Z,2.83
2023-04-03T08:12:16.146Z,3.67
2023-04-03T08:14:43.460Z,2.60
2023-04-03T08:17:12.905Z,2.50
2023-04-03T08:19:40.717Z,2.40
2023-04-03T08:22:08.131Z,2.30
2023-04-03T08:24:36.524Z,2.37
2023-04-03T08:27:14.153Z,2.73
2023-04-03T08:29:42.020Z,2.47
2023-04-03T08:32:09.912Z,3.43
2023-04-03T08:34:45.327Z,3.00
2023-04-03T08:37:17.416Z,3.27
2023-04-03T08:39:48.981Z,3.20
2023-04-03T08:42:48.513Z,3.17
2023-04-03T08:45:17.970Z,3.13
2023-04-03T08:48:48.766Z,3.63
2023-04-03T08:51:18.326Z,3.47
2023-04-03T08:53:58.088Z,3.20
2023-04-03T08:56:25.719Z,3.63
2023-04-03T08:58:58.647Z,3.65
2023-04-03T09:01:58.287Z,3.33
2023-04-03T09:04:33.727Z,3.53
2023-04-03T09:07:06.563Z,3.75
2023-04-03T09:09:42.402Z,3.72
2023-04-03T09:12:16.185Z,3.38
2023-04-03T09:15:08.240Z,3.97
2023-04-03T09:17:54.600Z,3.40
2023-04-03T09:21:01.218Z,3.92
2023-04-03T09:23:39.669Z,4.22
2023-04-03T09:26:44.102Z,4.00
2023-04-03T09:29:22.685Z,4.05
2023-04-03T09:31:52.170Z,3.95
2023-04-03T09:34:27.711Z,4.20
2023-04-03T09:36:59.256Z,4.38
2023-04-03T09:39:30.843Z,4.32
2023-04-03T09:42:02.830Z,4.32
2023-04-03T09:44:38.128Z,3.78
2023-04-03T09:47:37.810Z,4.05
2023-04-03T09:50:14.459Z,4.28
2023-04-03T09:52:42.327Z,4.43
2023-04-03T09:55:33.323Z,4.07
2023-04-03T09:58:02.232Z,4.22
2023-04-03T10:00:38.885Z,3.65
2023-04-03T10:03:11.658Z,3.95
2023-04-03T10:05:39.748Z,3.88
2023-04-03T10:08:16.409Z,3.65
2023-04-03T10:10:48.399Z,3.63
2023-04-03T10:13:22.235Z,3.90
2023-04-03T10:15:57.298Z,3.90
2023-04-03T10:18:52.172Z,3.72
2023-04-03T10:22:03.023Z,4.07
2023-04-03T10:25:17.904Z,3.47
2023-04-03T10:28:04.880Z,3.30
2023-04-03T10:30:55.924Z,3.78
2023-04-03T10:33:33.032Z,3.85
2023-04-03T10:36:13.727Z,3.53
2023-04-03T10:42:16.013Z,3.38
2023-04-03T10:44:51.075Z,3.40
2023-04-03T10:47:22.970Z,3.58
2023-04-03T10:50:33.661Z,3.15
2023-04-03T10:53:23.166Z,3.38
2023-04-03T10:56:26.060Z,3.10
2023-04-03T10:59:04.366Z,2.80
2023-04-03T11:01:35.694Z,3.05
2023-04-03T11:04:05.181Z,3.40
2023-04-03T11:06:42.491Z,3.15
2023-04-03T11:09:31.035Z,3.42
2023-04-03T11:12:22.975Z,2.65
2023-04-03T11:14:51.813Z,3.13
2023-04-03T11:17:25.188Z,3.13
2023-04-03T11:20:01.673Z,2.97
2023-04-03T11:22:33.791Z,3.30
2023-04-03T11:25:10.400Z,2.90
2023-04-03T11:27:57.429Z,2.72
2023-04-03T11:30:35.788Z,2.85
2023-04-03T11:33:36.383Z,2.75
2023-04-03T11:36:24.992Z,2.40
2023-04-03T11:38:59.030Z,2.40
2023-04-03T11:41:32.685Z,2.83
2023-04-03T11:44:09.997Z,2.85
2023-04-03T11:46:57.867Z,3.03
2023-04-03T11:49:52.592Z,2.70
2023-04-03T11:52:46.920Z,2.60
2023-04-03T11:55:23.197Z,2.30
2023-04-03T11:57:59.767Z,2.85
2023-04-03T12:00:48.555Z,2.90
2023-04-03T12:03:31.092Z,2.40
2023-04-03T12:06:18.142Z,3.42
2023-04-03T12:08:49.465Z,2.83
2023-04-03T12:11:32.817Z,2.75
2023-04-03T12:13:59.978Z,2.53
2023-04-03T12:16:30.968Z,2.70
2023-04-03T12:19:05.858Z,2.90
2023-04-03T12:21:45.041Z,2.83
2023-04-03T12:24:18.155Z,2.50
2023-04-03T12:27:08.072Z,2.67
2023-04-03T12:29:43.895Z,2.80
2023-04-03T12:32:27.170Z,3.00
2023-04-03T12:35:22.869Z,3.17
2023-04-03T12:38:04.941Z,3.58
2023-04-03T12:40:38.046Z,2.95
2023-04-03T12:43:29.965Z,2.83
2023-04-03T12:46:04.276Z,3.10
2023-04-03T12:48:33.348Z,3.10
2023-04-03T12:51:01.048Z,2.97
2023-04-03T12:53:39.803Z,2.30
2023-04-03T12:56:28.058Z,2.58
2023-04-03T12:58:56.622Z,2.72
2023-04-03T13:01:25.643Z,2.33
2023-04-03T13:03:57.702Z,2.80
2023-04-03T13:06:29.446Z,2.15
2023-04-03T13:08:59.891Z,2.85
2023-04-03T13:13:59.705Z,2.40
2023-04-03T13:16:27.567Z,2.10
2023-04-03T13:18:55.404Z,2.88
2023-04-03T13:21:27.516Z,2.25
2023-04-03T13:24:14.089Z,2.47
2023-04-03T13:26:42.990Z,12.88
2023-04-03T13:29:35.677Z,2.33
2023-04-03T13:32:03.350Z,2.20
2023-04-03T13:34:37.999Z,2.20
2023-04-03T13:37:05.822Z,2.25
2023-04-03T13:39:35.218Z,2.13
2023-04-03T13:42:23.898Z,2.45
2023-04-03T13:44:51.414Z,2.63
2023-04-03T13:47:26.456Z,2.42
2023-04-03T13:50:02.324Z,2.50
2023-04-03T13:52:40.224Z,2.42
2023-04-03T13:55:25.616Z,2.47
2023-04-03T13:57:58.729Z,2.60
2023-04-03T14:00:34.276Z,2.70
2023-04-03T14:03:03.022Z,2.78
2023-04-03T14:05:30.588Z,3.08
2023-04-03T14:07:58.082Z,2.50
2023-04-03T14:10:25.329Z,2.95
2023-04-03T14:13:08.839Z,2.90
2023-04-03T14:15:42.691Z,3.20
2023-04-03T14:18:14.138Z,2.38
2023-04-03T14:20:45.245Z,2.72
2023-04-03T14:24:01.011Z,2.83
2023-04-03T14:26:31.700Z,2.85
2023-04-03T14:29:01.869Z,2.72
2023-04-03T14:31:32.440Z,2.88
2023-04-03T14:36:31.865Z,3.05
2023-04-03T14:39:03.068Z,3.17
2023-04-03T14:41:30.552Z,2.47
2023-04-03T14:44:05.049Z,2.47
2023-04-03T14:46:55.186Z,3.08
2023-04-03T14:50:06.940Z,3.15
2023-04-03T14:52:42.277Z,3.40
2023-04-03T14:55:09.881Z,2.70
2023-04-03T14:57:38.296Z,3.78
2023-04-03T15:00:26.841Z,3.05
2023-04-03T15:03:03.676Z,2.78
2023-04-03T15:05:33.382Z,2.60
2023-04-03T15:08:01.770Z,2.20
2023-04-03T15:10:31.092Z,2.80
2023-04-03T15:12:58.801Z,2.90
2023-04-03T15:15:28.937Z,2.70
2023-04-03T15:18:01.999Z,2.70
2023-04-03T15:20:54.495Z,2.35
2023-04-03T15:23:39.280Z,2.83
2023-04-03T15:26:09.551Z,2.80
2023-04-03T15:28:40.959Z,2.40
2023-04-03T15:31:09.344Z,2.40
2023-04-03T15:33:40.036Z,2.75
2023-04-03T15:36:17.597Z,2.63
2023-04-03T15:38:55.930Z,2.30
2023-04-03T15:41:23.242Z,2.53
2023-04-03T15:43:51.463Z,2.60
2023-04-03T15:46:18.738Z,2.40
2023-04-03T15:48:50.678Z,2.45
2023-04-03T15:51:18.030Z,2.42
2023-04-03T15:53:45.537Z,2.65
2023-04-03T15:56:13.224Z,2.58
2023-04-03T15:58:41.320Z,2.30
2023-04-03T16:01:11.327Z,2.50
2023-04-03T16:03:45.236Z,2.63
2023-04-03T16:06:16.249Z,2.58
2023-04-03T16:08:43.750Z,2.35
2023-04-03T16:11:11.602Z,2.75
2023-04-03T16:13:40.021Z,1.95
2023-04-03T16:16:08.385Z,2.40
2023-04-03T16:18:39.174Z,2.05
2023-04-03T16:21:10.567Z,1.70
2023-04-03T16:23:41.140Z,1.75
2023-04-03T16:26:08.841Z,1.97
2023-04-03T16:28:36.623Z,1.67
2023-04-03T16:31:04.181Z,2.00
2023-04-03T16:33:31.780Z,1.95
2023-04-03T16:35:58.973Z,2.40
2023-04-03T16:38:26.527Z,2.40
2023-04-03T16:40:57.632Z,2.38
2023-04-03T16:43:24.862Z,2.17
2023-04-03T16:45:52.450Z,2.08
2023-04-03T16:48:19.907Z,2.22
2023-04-03T16:50:54.100Z,2.03
2023-04-03T16:53:23.301Z,1.88
2023-04-03T16:55:51.314Z,1.58
2023-04-03T16:58:18.543Z,2.35
2023-04-03T17:00:46.002Z,2.00
2023-04-03T17:03:13.499Z,2.22
2023-04-03T17:05:47.873Z,2.38
2023-04-03T17:08:18.177Z,1.70
2023-04-03T17:10:45.694Z,2.03
2023-04-03T17:13:18.799Z,1.90
2023-04-03T17:15:46.359Z,1.60
2023-04-03T17:18:13.503Z,1.70
2023-04-03T17:20:40.841Z,1.73
2023-04-03T17:23:08.496Z,1.50
2023-04-03T17:25:35.640Z,1.67
2023-04-03T17:28:03.312Z,1.55
2023-04-03T17:30:30.681Z,1.30
2023-04-03T17:32:57.862Z,1.38
2023-04-03T17:35:25.144Z,1.10
2023-04-03T17:37:53.168Z,1.42
2023-04-03T17:40:20.607Z,1.30
2023-04-03T17:42:48.397Z,1.33
2023-04-03T17:45:16.051Z,1.20
2023-04-03T17:47:46.802Z,1.25
2023-04-03T17:50:16.796Z,1.35
2023-04-03T17:52:44.198Z,1.27
2023-04-03T17:55:11.574Z,1.55
2023-04-03T17:57:39.262Z,1.20
2023-04-03T18:00:09.552Z,1.35
2023-04-03T18:02:43.220Z,1.15
2023-04-03T18:05:11.015Z,1.35
2023-04-03T18:07:38.339Z,1.65
2023-04-03T18:10:09.297Z,1.45
2023-04-03T18:12:37.953Z,1.60
2023-04-03T18:15:05.899Z,1.35
2023-04-03T18:17:34.062Z,1.63
2023-04-03T18:20:01.406Z,1.40
2023-04-03T18:22:28.555Z,1.52
2023-04-03T18:24:56.909Z,1.63
2023-04-03T18:27:25.814Z,1.52
2023-04-03T18:30:05.249Z,1.60
2023-04-03T18:32:32.407Z,1.65
2023-04-03T18:35:00.408Z,1.77
2023-04-03T18:37:28.446Z,1.87
2023-04-03T18:39:55.759Z,1.98
2023-04-03T18:42:24.680Z,1.90
2023-04-03T18:44:57.284Z,1.70
2023-04-03T18:47:24.554Z,1.80
2023-04-03T18:49:51.713Z,1.57
2023-04-03T18:52:19.078Z,1.40
2023-04-03T18:54:46.477Z,1.50
2023-04-03T18:57:13.589Z,1.40
2023-04-03T18:59:40.880Z,1.40
2023-04-03T19:02:08.616Z,1.40
2023-04-03T19:04:35.853Z,1.40
2023-04-03T19:07:05.741Z,1.23
2023-04-03T19:09:33.319Z,1.40
2023-04-03T19:12:02.011Z,1.40
2023-04-03T19:14:29.356Z,1.50
2023-04-03T19:16:56.828Z,1.97
2023-04-03T19:19:24.243Z,1.40
2023-04-03T19:21:51.480Z,1.47
2023-04-03T19:24:19.008Z,2.30
2023-04-03T19:26:46.636Z,1.63
2023-04-03T19:29:13.974Z,1.50
2023-04-03T19:31:41.184Z,1.40
2023-04-03T19:34:11.461Z,1.53
2023-04-03T19:36:38.789Z,2.00
2023-04-03T19:39:08.288Z,1.50
2023-04-03T19:41:37.945Z,1.63
2023-04-03T19:44:06.231Z,1.55
2023-04-03T19:46:34.119Z,1.60
2023-04-03T19:49:01.310Z,1.63
2023-04-03T19:51:28.598Z,1.60
2023-04-03T19:53:58.763Z,1.50
2023-04-03T19:56:26.477Z,2.22
2023-04-03T19:58:54.356Z,1.63
2023-04-03T20:01:27.038Z,2.20
2023-04-03T20:03:54.395Z,1.97
2023-04-03T20:06:21.915Z,2.40
2023-04-03T20:08:49.644Z,2.90
2023-04-03T20:11:17.030Z,2.63
2023-04-03T20:13:44.393Z,2.47
2023-04-03T20:16:11.724Z,2.47
2023-04-03T20:18:39.877Z,2.60
2023-04-03T20:21:07.637Z,2.10
2023-04-03T20:23:35.644Z,2.40
2023-04-03T20:26:10.925Z,1.87
2023-04-03T20:28:42.736Z,1.90
2023-04-03T20:31:12.257Z,2.03
2023-04-03T20:33:39.965Z,2.40
2023-04-03T20:36:07.909Z,2.00
2023-04-03T20:38:35.207Z,2.30
2023-04-03T20:41:02.583Z,1.80
2023-04-03T20:43:30.107Z,2.07
2023-04-03T20:46:03.578Z,2.23
2023-04-03T20:48:31.475Z,2.73
2023-04-03T20:50:59.096Z,3.27
2023-04-03T20:53:27.519Z,3.50
2023-04-03T20:56:00.157Z,3.23
2023-04-03T20:58:30.716Z,3.87
2023-04-03T21:00:58.343Z,2.53
2023-04-03T21:03:26.251Z,2.07
2023-04-03T21:06:04.320Z,2.60
2023-04-03T21:09:09.251Z,2.40
2023-04-03T21:12:14.009Z,2.30
2023-04-03T21:15:21.492Z,1.97
2023-04-03T21:18:10.527Z,2.43
2023-04-03T21:20:38.109Z,2.27
2023-04-03T21:23:06.184Z,2.20
2023-04-03T21:25:33.359Z,1.77
2023-04-03T21:28:00.523Z,2.60
2023-04-03T21:30:27.655Z,2.90
2023-04-03T21:32:55.368Z,3.03
2023-04-03T21:35:22.792Z,2.70
2023-04-03T21:37:50.349Z,2.87
2023-04-03T21:40:17.828Z,2.43
2023-04-03T21:42:45.279Z,2.30
2023-04-03T21:45:16.206Z,2.33
2023-04-03T21:47:44.130Z,2.33
2023-04-03T21:50:14.296Z,2.20
2023-04-03T21:52:41.478Z,2.28
2023-04-03T21:55:09.381Z,2.27
2023-04-03T21:57:36.869Z,2.50
2023-04-03T22:00:13.562Z,2.60
2023-04-03T22:02:41.770Z,2.20
2023-04-03T22:05:09.349Z,2.20
2023-04-03T22:07:36.846Z,2.10
2023-04-03T22:10:05.033Z,2.20
2023-04-03T22:12:32.716Z,2.80
2023-04-03T22:15:00.356Z,2.50
2023-04-03T22:17:31.363Z,2.40
2023-04-03T22:19:58.566Z,2.53
2023-04-03T22:22:25.899Z,2.17
2023-04-03T22:24:54.138Z,2.50
2023-04-03T22:27:24.639Z,2.03
2023-04-03T22:32:19.054Z,2.23
2023-04-03T22:34:46.646Z,2.60
2023-04-03T22:37:14.137Z,2.47
2023-04-03T22:39:41.463Z,3.40
2023-04-03T22:42:11.872Z,2.87
2023-04-03T22:44:39.429Z,2.70
2023-04-03T22:47:06.914Z,2.70
2023-04-03T22:49:34.218Z,2.50
2023-04-03T22:52:01.690Z,2.50
2023-04-03T22:54:28.877Z,2.43
2023-04-03T22:56:56.272Z,2.30
2023-04-03T22:59:23.765Z,2.70
2023-04-03T23:01:51.375Z,2.23
2023-04-03T23:04:18.618Z,2.83
2023-04-03T23:06:46.034Z,2.20
2023-04-03T23:09:13.364Z,2.40
2023-04-03T23:11:40.789Z,2.70
2023-04-03T23:14:10.484Z,2.10
2023-04-03T23:16:38.094Z,2.50
2023-04-03T23:19:05.372Z,2.63
2023-04-03T23:21:33.735Z,2.93
2023-04-03T23:24:01.042Z,2.27
2023-04-03T23:26:28.959Z,2.70
2023-04-03T23:28:56.653Z,2.63
2023-04-03T23:31:25.974Z,2.50
2023-04-03T23:33:53.738Z,2.73
2023-04-03T23:36:21.600Z,2.20
2023-04-03T23:38:49.074Z,2.47
2023-04-03T23:41:16.312Z,2.10
2023-04-03T23:43:43.542Z,2.50
2023-04-03T23:46:20.184Z,2.37
2023-04-03T23:48:56.265Z,2.43
2023-04-03T23:51:23.566Z,2.50
2023-04-03T23:53:51.345Z,2.13
2023-04-03T23:56:18.829Z,2.93
2023-04-03T23:58:46.102Z,2.53
